This is the latest recevied weather packets stored in our database for station/object KD8ZLZ-13. If no packets are shown the sender has not sent any weather packets the latest 10 day(s).
| Time | Temp. | Humidity | Pressure | Rain* | Wind** | Luminosity | Snow |
|---|---|---|---|---|---|---|---|
| 1777839793 | 17.22° C | 37% | 1011.2 hPa | 0 mm | - | 322 W/m² | - |
| 1777839193 | 18.33° C | 37% | 1011.5 hPa | 0 mm | - | 623 W/m² | - |
| 1777837393 | 17.78° C | 36% | 1011.5 hPa | 0 mm | - | 681 W/m² | - |
| 1777836193 | 17.22° C | 36% | 1011.9 hPa | 0 mm | - | 659 W/m² | - |
| 1777835593 | 17.78° C | 35% | 1012.2 hPa | 0 mm | - | 931 W/m² | - |
| 1777834993 | 17.22° C | 35% | 1012.2 hPa | 0 mm | - | 655 W/m² | - |
| 1777834393 | 17.22° C | 36% | 1012.2 hPa | 0 mm | - | 917 W/m² | - |
| 1777833193 | 17.22° C | 36% | 1012.6 hPa | 0 mm | - | 715 W/m² | - |
| 1777832593 | 16.67° C | 36% | 1012.6 hPa | 0 mm | - | 737 W/m² | - |
| 1777831993 | 16.67° C | 34% | 1013.2 hPa | 0 mm | - | 481 W/m² | - |
| 1777831393 | 16.67° C | 36% | 1013.2 hPa | 0 mm | - | 816 W/m² | - |
| 1777829593 | 16.67° C | 37% | 1013.6 hPa | 0 mm | - | 985 W/m² | - |
| 1777828993 | 16.11° C | 38% | 1013.9 hPa | 0 mm | - | 934 W/m² | - |
| 1777828393 | 16.11° C | 40% | 1014.2 hPa | 0 mm | - | 990 W/m² | - |
| 1777827793 | 15° C | 41% | 1014.2 hPa | 0 mm | - | 610 W/m² | - |
| 1777827193 | 14.44° C | 40% | 1014.2 hPa | 0 mm | - | 729 W/m² | - |
| 1777826593 | 13.89° C | 41% | 1014.2 hPa | 0 mm | - | 318 W/m² | - |
| 1777825993 | 13.89° C | 41% | 1014.2 hPa | 0 mm | - | 255 W/m² | - |
| 1777824793 | 14.44° C | 41% | 1014.6 hPa | 0 mm | - | 373 W/m² | - |
| 1777823593 | 13.89° C | 40% | 1014.6 hPa | 0 mm | - | 243 W/m² | - |
| 1777816992 | 10.56° C | 50% | 1014.9 hPa | 0 mm | - | 518 W/m² | - |
| 1777805592 | 1.67° C | 69% | 1015.3 hPa | 0 mm | - | 15 W/m² | - |
| 1777804392 | 1.67° C | 69% | 1015.3 hPa | 0 mm | - | 3 W/m² | - |
| 1777803192 | 1.67° C | 72% | 1015.6 hPa | 0 mm | - | 0 W/m² | - |
| 1777800792 | 1.11° C | 74% | 1015.9 hPa | 0 mm | - | 0 W/m² | - |
* Rain latest hour (hover to see other rain measurements)
** Current wind speed in m/s (hover to see current wind gust speed)